Time;durP1;ratioP1;P1;durP2;ratioP2;P2;SDS_P1;SDS_P2;PMS_P1;PMS_P2;Temp;Humidity;BMP_temperature;BMP_pressure;BME280_temperature;BME280_humidity;BME280_pressure;Samples;Min_cycle;Max_cycle;Signal;HPM_P1;HPM_P2
2023/01/19 00:00:51;;;;;;;7.47;2.28;;;;;;;2.54;100.00;97875.25;4827941;29;20393;-80
2023/01/19 00:03:17;;;;;;;4.95;2.05;;;;;;;2.39;100.00;97870.00;4813599;29;20041;-79
2023/01/19 00:05:43;;;;;;;7.43;2.22;;;;;;;2.64;100.00;97870.66;4826037;29;20042;-80
2023/01/19 00:08:13;;;;;;;8.70;2.58;;;;;;;2.59;100.00;97872.97;4836250;29;20050;-78
2023/01/19 00:10:40;;;;;;;11.05;2.85;;;;;;;2.38;100.00;97876.97;4831935;29;20520;-81
2023/01/19 00:13:06;;;;;;;5.20;2.60;;;;;;;2.56;100.00;97874.13;4831940;29;20086;-79
2023/01/19 00:15:31;;;;;;;7.72;2.20;;;;;;;2.46;100.00;97872.72;4815522;29;20117;-80
2023/01/19 00:17:56;;;;;;;5.07;2.40;;;;;;;2.65;100.00;97874.03;4837570;29;20034;-79
2023/01/19 00:20:22;;;;;;;5.00;2.33;;;;;;;2.68;100.00;97881.50;4834911;29;20536;-79
2023/01/19 00:22:49;;;;;;;13.40;2.80;;;;;;;2.60;100.00;97890.13;4839504;29;20041;-79
2023/01/19 00:25:16;;;;;;;5.57;1.95;;;;;;;2.72;100.00;97873.19;4832039;29;20038;-79
2023/01/19 00:27:48;;;;;;;7.43;2.22;;;;;;;2.60;100.00;97863.41;4833732;29;20070;-79
2023/01/19 00:30:14;;;;;;;8.73;2.92;;;;;;;2.60;100.00;97879.75;4816512;29;20390;-80
2023/01/19 00:32:40;;;;;;;9.85;2.90;;;;;;;2.51;100.00;97865.22;4819973;29;20034;-80
2023/01/19 00:35:06;;;;;;;9.40;2.53;;;;;;;2.53;100.00;97882.22;4824366;29;20549;-79
2023/01/19 00:37:33;;;;;;;10.13;2.70;;;;;;;2.82;100.00;97882.53;4830616;29;20042;-82
2023/01/19 00:39:59;;;;;;;12.32;2.83;;;;;;;2.70;100.00;97875.16;4837024;29;20045;-79
2023/01/19 00:42:43;;;;;;;7.05;2.67;;;;;;;2.54;100.00;97860.53;4833679;29;20045;-79
2023/01/19 00:45:20;;;;;;;6.15;2.30;;;;;;;2.78;100.00;97881.28;4811933;29;20034;-79
2023/01/19 00:47:47;;;;;;;7.32;2.70;;;;;;;2.85;100.00;97879.59;4833160;29;20045;-80
2023/01/19 00:50:15;;;;;;;11.38;3.58;;;;;;;2.69;100.00;97870.94;4830343;29;20062;-81
2023/01/19 00:52:43;;;;;;;10.73;2.75;;;;;;;2.83;100.00;97873.78;4837196;29;20090;-79
2023/01/19 00:55:11;;;;;;;9.90;3.30;;;;;;;2.90;100.00;97872.09;4837450;29;20053;-79
2023/01/19 00:57:39;;;;;;;12.75;3.38;;;;;;;2.74;100.00;97879.97;4846602;29;20037;-80
2023/01/19 01:00:07;;;;;;;6.82;3.15;;;;;;;2.63;100.00;97858.69;4853776;29;20030;-81
2023/01/19 01:02:33;;;;;;;10.27;3.13;;;;;;;2.36;100.00;97850.44;4851481;29;20485;-80
2023/01/19 01:05:01;;;;;;;6.45;2.80;;;;;;;2.56;100.00;97876.69;4833570;29;20093;-79
2023/01/19 01:07:28;;;;;;;11.52;2.90;;;;;;;2.46;100.00;97872.72;4854007;29;20534;-80
2023/01/19 01:09:55;;;;;;;12.13;3.00;;;;;;;2.38;100.00;97868.38;4846047;29;20383;-80
2023/01/19 01:12:22;;;;;;;9.30;3.08;;;;;;;2.36;100.00;97876.34;4852586;29;20038;-80
2023/01/19 01:14:47;;;;;;;7.15;3.10;;;;;;;2.31;100.00;97862.28;4842792;29;20046;-81
2023/01/19 01:17:13;;;;;;;5.78;2.75;;;;;;;2.31;100.00;97859.69;4851927;29;20025;-80
2023/01/19 01:19:40;;;;;;;9.57;2.92;;;;;;;2.24;100.00;97880.28;4849029;29;20038;-79
2023/01/19 01:22:07;;;;;;;12.23;3.15;;;;;;;2.18;100.00;97880.97;4852470;29;20033;-81
2023/01/19 01:24:33;;;;;;;10.00;3.40;;;;;;;2.27;100.00;97870.41;4846347;29;20548;-80
2023/01/19 01:26:59;;;;;;;9.52;3.05;;;;;;;2.25;100.00;97889.66;4849767;29;20044;-80
2023/01/19 01:29:25;;;;;;;9.07;3.17;;;;;;;2.27;100.00;97878.16;4850449;29;20029;-81
2023/01/19 01:31:51;;;;;;;12.18;3.45;;;;;;;2.18;100.00;97875.78;4855897;29;20025;-80
2023/01/19 01:34:16;;;;;;;9.30;3.42;;;;;;;2.33;100.00;97876.66;4851004;29;20042;-79
2023/01/19 01:36:42;;;;;;;9.32;3.28;;;;;;;2.28;100.00;97874.59;4850652;29;20496;-79
2023/01/19 01:39:07;;;;;;;11.13;3.65;;;;;;;2.38;100.00;97866.63;4848161;29;20032;-78
2023/01/19 01:41:33;;;;;;;13.23;4.05;;;;;;;2.30;100.00;97871.81;4837688;29;20050;-79
2023/01/19 01:44:00;;;;;;;8.55;4.55;;;;;;;2.26;100.00;97873.97;4846856;29;20506;-80
2023/01/19 01:46:29;;;;;;;15.75;4.55;;;;;;;2.35;100.00;97885.06;4834269;29;20069;-78
2023/01/19 01:48:55;;;;;;;13.57;5.35;;;;;;;2.28;100.00;97890.13;4848233;29;20163;-78
2023/01/19 01:51:30;;;;;;;14.48;5.53;;;;;;;2.31;100.00;97886.38;4853651;29;20049;-80
2023/01/19 01:54:02;;;;;;;15.25;6.82;;;;;;;2.42;100.00;97893.78;4852190;29;20037;-80
2023/01/19 01:56:41;;;;;;;7.53;4.50;;;;;;;2.45;100.00;97897.00;4851355;29;20125;-80
2023/01/19 01:59:16;;;;;;;14.05;5.60;;;;;;;2.39;100.00;97891.53;4851098;29;20041;-80
2023/01/19 02:04:30;;;;;;;13.85;5.90;;;;;;;2.30;100.00;97900.31;4846397;29;20069;-80
2023/01/19 02:15:19;;;;;;;12.20;5.40;;;;;;;2.39;100.00;97904.50;4849462;29;20452;-77
2023/01/19 02:17:45;;;;;;;13.00;5.63;;;;;;;2.21;100.00;97890.97;4831067;29;20053;-80
2023/01/19 02:20:12;;;;;;;17.60;5.72;;;;;;;2.21;100.00;97901.34;4847891;29;20033;-81
2023/01/19 02:22:48;;;;;;;13.75;5.18;;;;;;;2.18;100.00;97897.28;4845647;29;20045;-81
2023/01/19 02:25:16;;;;;;;13.70;4.50;;;;;;;2.07;100.00;97898.47;4844867;29;20117;-79
2023/01/19 02:27:43;;;;;;;13.70;6.05;;;;;;;2.11;100.00;97907.50;4847122;29;20369;-78
2023/01/19 02:30:09;;;;;;;13.43;5.80;;;;;;;1.97;100.00;97905.66;4850610;29;20026;-78
2023/01/19 02:32:35;;;;;;;10.82;3.95;;;;;;;2.11;100.00;97897.16;4835076;29;20124;-80
2023/01/19 02:35:01;;;;;;;15.15;4.75;;;;;;;2.03;100.00;97902.38;4849395;29;20738;-79
2023/01/19 02:37:33;;;;;;;12.02;4.43;;;;;;;2.14;100.00;97896.03;4851486;29;20029;-81
2023/01/19 02:40:01;;;;;;;6.30;3.60;;;;;;;1.94;100.00;97895.59;4851781;29;20069;-78
2023/01/19 02:42:33;;;;;;;10.93;4.20;;;;;;;1.79;100.00;97885.97;4848340;29;20030;-80
2023/01/19 02:45:05;;;;;;;13.02;4.60;;;;;;;1.84;100.00;97899.19;4833992;29;20025;-79
2023/01/19 02:47:41;;;;;;;14.95;4.88;;;;;;;1.78;100.00;97901.66;4852357;29;20062;-82
2023/01/19 02:50:36;;;;;;;7.30;3.60;;;;;;;1.75;100.00;97902.78;4849652;29;20058;-79
2023/01/19 02:53:44;;;;;;;12.43;4.00;;;;;;;1.77;100.00;97905.22;4830930;29;20038;-80
2023/01/19 02:56:11;;;;;;;9.63;3.72;;;;;;;1.73;100.00;97903.94;4819507;29;20565;-81
2023/01/19 02:58:46;;;;;;;10.20;4.13;;;;;;;1.70;100.00;97892.13;4828811;29;20068;-80
2023/01/19 03:01:44;;;;;;;16.50;4.55;;;;;;;1.79;100.00;97893.72;4832102;29;20057;-81
2023/01/19 03:04:28;;;;;;;13.80;5.00;;;;;;;1.82;100.00;97893.38;4830490;29;20054;-79
2023/01/19 03:07:15;;;;;;;17.40;4.03;;;;;;;1.94;100.00;97901.59;4832318;29;20118;-80
2023/01/19 03:09:45;;;;;;;6.93;3.33;;;;;;;2.05;100.00;97895.25;4831466;29;20029;-81
2023/01/19 03:12:29;;;;;;;12.73;4.25;;;;;;;2.10;100.00;97884.41;4831967;29;20035;-80
2023/01/19 03:15:01;;;;;;;9.57;4.53;;;;;;;2.08;100.00;97887.16;4833795;29;20473;-78
2023/01/19 03:17:30;;;;;;;9.07;3.80;;;;;;;2.09;100.00;97878.41;4831810;29;20136;-78
2023/01/19 03:19:56;;;;;;;7.63;3.33;;;;;;;2.11;100.00;97886.00;4829912;29;20045;-79
2023/01/19 03:22:26;;;;;;;6.53;3.03;;;;;;;2.11;100.00;97879.03;4832286;29;20049;-80
2023/01/19 03:24:57;;;;;;;8.77;3.10;;;;;;;2.06;100.00;97878.75;4829777;29;20042;-81
2023/01/19 03:27:30;;;;;;;11.07;2.83;;;;;;;2.09;100.00;97880.19;4835526;29;20122;-79
2023/01/19 03:30:08;;;;;;;6.35;2.47;;;;;;;2.14;100.00;97886.47;4835147;29;20368;-80
2023/01/19 03:32:46;;;;;;;6.63;2.90;;;;;;;1.90;100.00;97863.28;4831679;29;20030;-78
2023/01/19 03:35:15;;;;;;;8.85;3.45;;;;;;;1.92;100.00;97876.84;4825133;29;20070;-79
2023/01/19 03:37:43;;;;;;;10.55;3.58;;;;;;;1.81;100.00;97871.06;4821806;29;20038;-79
2023/01/19 03:40:10;;;;;;;10.10;3.22;;;;;;;1.83;100.00;97863.94;4823847;29;20034;-81
2023/01/19 03:42:43;;;;;;;7.70;3.13;;;;;;;1.80;100.00;97874.63;4833515;29;20074;-77
2023/01/19 03:45:10;;;;;;;10.48;3.28;;;;;;;1.65;100.00;97879.69;4833456;29;20493;-77
2023/01/19 03:47:37;;;;;;;10.20;3.72;;;;;;;1.49;100.00;97875.34;4832473;29;20033;-77
2023/01/19 03:50:17;;;;;;;10.25;3.70;;;;;;;1.14;100.00;97865.22;4833531;29;20038;-78
2023/01/19 03:53:21;;;;;;;11.13;3.30;;;;;;;1.28;100.00;97876.69;4833994;29;20106;-79
2023/01/19 03:55:49;;;;;;;11.57;3.13;;;;;;;1.35;100.00;97860.50;4828751;29;20327;-79
2023/01/19 03:58:16;;;;;;;11.00;3.15;;;;;;;1.40;100.00;97858.25;4851128;29;20126;-78
2023/01/19 04:00:41;;;;;;;9.63;3.30;;;;;;;1.43;100.00;97878.59;4852011;29;20034;-79
2023/01/19 04:03:13;;;;;;;8.32;3.25;;;;;;;1.53;100.00;97868.09;4857190;29;20041;-78
2023/01/19 04:05:39;;;;;;;8.43;2.85;;;;;;;1.43;100.00;97863.09;4855085;29;20034;-78
2023/01/19 04:08:06;;;;;;;5.90;2.60;;;;;;;1.62;100.00;97874.03;4847902;29;20090;-77
2023/01/19 04:10:32;;;;;;;8.57;2.80;;;;;;;1.64;100.00;97870.31;4853028;29;20030;-78
2023/01/19 04:13:01;;;;;;;8.90;2.55;;;;;;;1.60;100.00;97866.44;4849275;29;20041;-78
2023/01/19 04:15:28;;;;;;;10.93;3.25;;;;;;;1.64;100.00;97872.88;4834675;29;20030;-78
2023/01/19 04:17:56;;;;;;;4.63;2.20;;;;;;;1.63;100.00;97873.06;4851516;29;20033;-78
2023/01/19 04:20:22;;;;;;;6.97;2.30;;;;;;;1.41;100.00;97873.59;4838238;29;20037;-79
2023/01/19 04:22:48;;;;;;;7.13;2.25;;;;;;;1.63;100.00;97883.41;4849785;29;20382;-78
2023/01/19 04:25:14;;;;;;;6.93;2.35;;;;;;;1.63;100.00;97883.41;4852886;29;20033;-78
2023/01/19 04:27:41;;;;;;;5.63;2.65;;;;;;;1.56;100.00;97873.72;4850410;29;20163;-78
2023/01/19 04:30:08;;;;;;;9.52;3.63;;;;;;;1.55;100.00;97881.66;4851945;29;20121;-79
2023/01/19 04:32:34;;;;;;;8.02;3.25;;;;;;;1.63;100.00;97881.63;4851779;29;20105;-78
2023/01/19 04:34:59;;;;;;;7.15;3.30;;;;;;;1.67;100.00;97889.88;4851556;29;20178;-79
2023/01/19 04:37:25;;;;;;;12.40;4.25;;;;;;;1.56;100.00;97894.41;4849153;29;20063;-79
2023/01/19 04:39:50;;;;;;;11.02;4.63;;;;;;;1.34;100.00;97890.75;4848792;29;20037;-78
2023/01/19 04:42:16;;;;;;;13.90;4.18;;;;;;;1.08;100.00;97876.22;4849720;29;20048;-77
2023/01/19 04:44:41;;;;;;;10.85;4.03;;;;;;;1.15;100.00;97889.28;4852421;29;20087;-79
2023/01/19 04:47:07;;;;;;;12.25;5.75;;;;;;;1.21;100.00;97890.41;4846264;29;20029;-79
2023/01/19 04:49:36;;;;;;;15.98;5.07;;;;;;;1.17;100.00;97887.34;4849935;29;20499;-78
2023/01/19 04:52:03;;;;;;;10.95;5.70;;;;;;;1.14;100.00;97874.75;4852659;29;20045;-78
2023/01/19 04:54:29;;;;;;;17.30;7.00;;;;;;;1.32;100.00;97887.50;4854955;29;20029;-78
2023/01/19 04:56:54;;;;;;;17.45;7.22;;;;;;;1.46;100.00;97878.28;4851924;29;20057;-79
2023/01/19 04:59:20;;;;;;;22.63;9.55;;;;;;;1.79;100.00;97887.72;4845155;29;20485;-78
2023/01/19 05:01:46;;;;;;;21.17;9.15;;;;;;;1.94;100.00;97887.84;4850405;29;20042;-79
2023/01/19 05:04:11;;;;;;;19.65;9.30;;;;;;;2.20;100.00;97890.16;4849782;29;20037;-79
2023/01/19 05:06:37;;;;;;;24.50;10.30;;;;;;;2.31;100.00;97886.38;4849246;29;20120;-79
2023/01/19 05:09:02;;;;;;;30.55;11.55;;;;;;;2.36;100.00;97878.13;4845445;29;20053;-78
2023/01/19 05:11:30;;;;;;;29.77;13.02;;;;;;;2.39;100.00;97878.59;4849601;29;20124;-78
2023/01/19 05:13:56;;;;;;;37.97;16.50;;;;;;;2.16;100.00;97877.72;4851937;29;20120;-78
2023/01/19 05:16:22;;;;;;;30.20;15.77;;;;;;;2.03;100.00;97875.69;4853089;29;20081;-78
2023/01/19 05:18:48;;;;;;;34.80;15.95;;;;;;;1.99;100.00;97870.03;4853595;29;20030;-78
2023/01/19 05:21:14;;;;;;;24.67;14.43;;;;;;;1.83;100.00;97874.31;4850185;29;20034;-80
2023/01/19 05:23:40;;;;;;;28.77;13.27;;;;;;;1.66;100.00;97857.22;4849740;29;20125;-78
2023/01/19 05:26:06;;;;;;;32.10;16.15;;;;;;;1.70;100.00;97876.59;4854646;29;20040;-78
2023/01/19 05:28:32;;;;;;;29.00;16.42;;;;;;;1.63;100.00;97862.72;4851008;29;20465;-78
2023/01/19 05:30:58;;;;;;;31.92;18.30;;;;;;;1.65;100.00;97866.75;4849569;29;20034;-79
2023/01/19 05:33:24;;;;;;;32.75;16.45;;;;;;;1.61;100.00;97862.09;4850399;29;20082;-79
2023/01/19 05:35:53;;;;;;;30.88;17.17;;;;;;;1.53;100.00;97862.91;4849911;29;20116;-79
2023/01/19 05:38:19;;;;;;;25.83;13.93;;;;;;;1.49;100.00;97867.59;4856150;29;20515;-78
2023/01/19 05:40:45;;;;;;;17.58;7.75;;;;;;;1.47;100.00;97869.53;4847943;29;20077;-78
2023/01/19 05:43:11;;;;;;;16.30;7.85;;;;;;;1.29;100.00;97869.75;4851635;29;20064;-80
2023/01/19 05:45:40;;;;;;;19.65;9.85;;;;;;;1.27;100.00;97869.91;4851476;29;20397;-79
2023/01/19 05:48:06;;;;;;;22.27;10.30;;;;;;;1.44;100.00;97851.78;4851210;29;20038;-79
2023/01/19 05:50:33;;;;;;;24.35;9.38;;;;;;;1.64;100.00;97865.13;4833520;29;20037;-79
2023/01/19 05:53:00;;;;;;;18.13;8.80;;;;;;;1.75;100.00;97856.19;4850456;29;20283;-80
2023/01/19 05:55:27;;;;;;;36.65;16.83;;;;;;;1.96;100.00;97847.88;4851419;29;20069;-79
2023/01/19 05:57:52;;;;;;;44.67;19.58;;;;;;;2.19;100.00;97841.94;4850930;29;20049;-79
2023/01/19 06:00:18;;;;;;;63.88;28.05;;;;;;;2.30;100.00;97852.91;4848632;29;20090;-79
2023/01/19 06:02:46;;;;;;;59.45;28.02;;;;;;;2.61;100.00;97847.69;4831653;29;20038;-79
2023/01/19 06:05:12;;;;;;;53.92;26.17;;;;;;;3.00;100.00;97851.94;4851390;29;20055;-79
2023/01/19 06:07:38;;;;;;;52.20;23.52;;;;;;;3.25;100.00;97862.09;4848918;29;20029;-79
2023/01/19 06:10:04;;;;;;;41.58;20.48;;;;;;;3.26;100.00;97855.91;4846753;29;20034;-78
2023/01/19 06:12:31;;;;;;;50.75;21.58;;;;;;;3.24;100.00;97857.06;4849719;29;20029;-78
2023/01/19 06:14:57;;;;;;;42.10;22.33;;;;;;;3.10;100.00;97861.25;4847835;29;20034;-80
2023/01/19 06:17:23;;;;;;;42.35;21.77;;;;;;;2.69;100.00;97858.00;4846706;29;20496;-78
2023/01/19 06:19:48;;;;;;;44.05;20.73;;;;;;;2.87;100.00;97859.47;4845136;29;20057;-79
2023/01/19 06:22:14;;;;;;;37.13;17.55;;;;;;;2.41;100.00;97850.72;4848078;29;20034;-78
2023/01/19 06:24:40;;;;;;;34.60;17.95;;;;;;;2.46;100.00;97846.81;4846052;29;20410;-78
2023/01/19 06:27:06;;;;;;;35.78;18.55;;;;;;;2.24;100.00;97851.81;4845128;29;20061;-77
2023/01/19 06:29:31;;;;;;;29.08;16.23;;;;;;;2.32;100.00;97856.94;4844799;29;20034;-78
2023/01/19 06:31:58;;;;;;;25.83;14.30;;;;;;;2.23;100.00;97855.38;4856970;29;20037;-77
2023/01/19 06:34:27;;;;;;;26.73;13.80;;;;;;;2.22;100.00;97856.34;4854563;29;20056;-78
2023/01/19 06:36:55;;;;;;;23.63;13.52;;;;;;;2.45;100.00;97861.53;4853039;29;20029;-78
2023/01/19 06:39:20;;;;;;;22.02;12.32;;;;;;;2.41;100.00;97862.88;4843077;29;20117;-80
2023/01/19 06:41:46;;;;;;;20.83;11.80;;;;;;;2.45;100.00;97865.94;4850405;29;20173;-78
2023/01/19 06:44:12;;;;;;;25.58;13.23;;;;;;;2.42;100.00;97861.88;4852625;29;20038;-79
2023/01/19 06:46:38;;;;;;;24.08;13.50;;;;;;;2.55;100.00;97874.28;4834311;29;20030;-80
2023/01/19 06:49:03;;;;;;;34.63;18.13;;;;;;;2.41;100.00;97866.28;4854292;29;20029;-79
2023/01/19 06:51:29;;;;;;;26.35;15.70;;;;;;;2.33;100.00;97863.72;4851568;29;20121;-80
2023/01/19 06:53:54;;;;;;;31.48;15.70;;;;;;;2.14;100.00;97870.94;4841588;29;20046;-78
2023/01/19 06:56:20;;;;;;;24.63;14.68;;;;;;;2.35;100.00;97872.13;4850896;29;20085;-78
2023/01/19 06:58:47;;;;;;;24.63;13.80;;;;;;;2.30;100.00;97861.47;4844512;29;20108;-78
2023/01/19 07:01:12;;;;;;;20.95;12.95;;;;;;;2.21;100.00;97870.28;4845283;29;20045;-79
2023/01/19 07:03:39;;;;;;;24.98;11.95;;;;;;;2.04;100.00;97865.16;4852262;29;20038;-79
2023/01/19 07:06:07;;;;;;;18.52;10.38;;;;;;;2.16;100.00;97872.53;4831117;29;20044;-79
2023/01/19 07:08:35;;;;;;;15.15;8.85;;;;;;;2.22;100.00;97871.88;4849011;29;20110;-79
2023/01/19 07:11:05;;;;;;;13.85;7.50;;;;;;;1.90;100.00;97881.38;4850499;29;20041;-79
2023/01/19 07:13:32;;;;;;;13.75;6.70;;;;;;;1.98;100.00;97861.47;4850051;29;20033;-78
2023/01/19 07:15:58;;;;;;;21.20;5.57;;;;;;;2.10;100.00;97869.66;4853327;29;20045;-82
2023/01/19 07:18:24;;;;;;;15.32;5.38;;;;;;;1.99;100.00;97872.63;4852247;29;20033;-82
2023/01/19 07:20:50;;;;;;;8.98;5.07;;;;;;;1.91;100.00;97881.22;4856489;29;20470;-82
2023/01/19 07:23:16;;;;;;;10.02;4.28;;;;;;;2.12;100.00;97883.22;4853157;29;20037;-81
2023/01/19 07:25:45;;;;;;;9.68;3.70;;;;;;;2.19;100.00;97888.56;4857120;29;20392;-82
2023/01/19 07:28:14;;;;;;;9.73;4.35;;;;;;;2.17;100.00;97894.91;4839834;29;20040;-81
2023/01/19 07:30:41;;;;;;;7.75;4.47;;;;;;;2.33;100.00;97887.03;4855383;29;20089;-81
2023/01/19 07:33:07;;;;;;;7.18;4.25;;;;;;;2.24;100.00;97896.63;4855445;29;20099;-81
2023/01/19 07:35:32;;;;;;;9.82;4.30;;;;;;;2.05;100.00;97882.31;4857480;29;20443;-83
2023/01/19 07:38:00;;;;;;;10.43;4.68;;;;;;;2.06;100.00;97886.50;4857626;29;20124;-84
2023/01/19 07:40:27;;;;;;;14.23;5.40;;;;;;;2.18;100.00;97902.47;4854512;29;20055;-82
2023/01/19 07:42:52;;;;;;;13.15;5.57;;;;;;;2.07;100.00;97908.81;4835860;29;20084;-84
2023/01/19 07:45:19;;;;;;;9.95;5.70;;;;;;;2.18;100.00;97902.47;4852983;29;20129;-81
2023/01/19 07:47:50;;;;;;;11.25;7.15;;;;;;;2.20;100.00;97894.56;4850636;29;20042;-80
2023/01/19 07:50:20;;;;;;;15.13;8.13;;;;;;;2.31;100.00;97899.34;4836045;29;20039;-80
2023/01/19 07:52:46;;;;;;;16.88;8.57;;;;;;;2.27;100.00;97898.06;4852066;29;20456;-81
2023/01/19 07:55:11;;;;;;;19.13;9.27;;;;;;;2.31;100.00;97896.75;4837203;29;20126;-81
2023/01/19 07:57:37;;;;;;;17.38;10.20;;;;;;;2.26;100.00;97896.44;4828850;29;20675;-81
2023/01/19 08:00:03;;;;;;;16.98;10.85;;;;;;;2.36;100.00;97899.66;4829122;29;20046;-83
2023/01/19 08:02:30;;;;;;;20.95;11.88;;;;;;;2.41;100.00;97905.13;4837619;29;20121;-82
2023/01/19 08:04:59;;;;;;;24.05;13.43;;;;;;;2.47;100.00;97913.19;4832233;29;20045;-80
2023/01/19 08:07:25;;;;;;;18.55;11.43;;;;;;;2.36;100.00;97898.84;4831250;29;20038;-81
2023/01/19 08:09:51;;;;;;;18.27;9.48;;;;;;;2.38;100.00;97921.00;4832227;29;20026;-82
2023/01/19 08:12:17;;;;;;;17.17;10.05;;;;;;;2.39;100.00;97925.22;4834533;29;20045;-80
2023/01/19 08:14:42;;;;;;;13.73;8.30;;;;;;;2.40;100.00;97916.47;4836822;29;20498;-81
2023/01/19 08:17:12;;;;;;;19.05;7.72;;;;;;;2.38;100.00;97930.53;4837832;29;20033;-81
2023/01/19 08:19:38;;;;;;;18.92;7.43;;;;;;;2.51;100.00;97940.34;4844020;29;20125;-80
2023/01/19 08:22:04;;;;;;;13.45;5.93;;;;;;;2.34;100.00;97937.84;4847498;29;20045;-77
2023/01/19 08:24:31;;;;;;;14.80;7.43;;;;;;;2.65;100.00;97938.81;4832981;29;20038;-80
2023/01/19 08:26:58;;;;;;;16.15;8.48;;;;;;;2.54;100.00;97933.06;4831988;29;20044;-78
2023/01/19 08:29:24;;;;;;;12.70;7.07;;;;;;;2.64;100.00;97940.63;4850229;29;20672;-78
2023/01/19 08:31:49;;;;;;;14.95;8.35;;;;;;;2.81;100.00;97937.94;4834654;29;20043;-81
2023/01/19 08:34:15;;;;;;;20.23;10.50;;;;;;;2.82;100.00;97936.97;4834196;29;20042;-77
2023/01/19 08:36:41;;;;;;;19.55;10.90;;;;;;;2.87;100.00;97947.59;4826331;29;20386;-77
2023/01/19 08:39:11;;;;;;;17.75;8.02;;;;;;;2.71;100.00;97938.16;4823940;29;20034;-79
2023/01/19 08:41:37;;;;;;;10.38;5.47;;;;;;;2.66;100.00;97938.66;4832889;29;20035;-79
2023/01/19 08:44:02;;;;;;;9.85;5.50;;;;;;;2.88;100.00;97938.06;4834978;29;20090;-78
2023/01/19 08:46:28;;;;;;;12.32;4.80;;;;;;;2.81;100.00;97936.13;4833784;29;20425;-78
2023/01/19 08:48:53;;;;;;;10.73;4.90;;;;;;;3.04;100.00;97952.69;4835899;29;20037;-80
2023/01/19 08:51:20;;;;;;;10.18;5.22;;;;;;;3.06;100.00;97950.72;4837074;29;20049;-77
2023/01/19 08:53:45;;;;;;;11.77;5.10;;;;;;;3.26;100.00;97946.69;4832202;29;20524;-79
2023/01/19 08:56:12;;;;;;;10.10;4.85;;;;;;;3.21;100.00;97954.19;4844032;29;20093;-78
2023/01/19 08:58:39;;;;;;;6.90;4.10;;;;;;;3.06;100.00;97930.00;4832983;29;20067;-78
2023/01/19 09:01:07;;;;;;;8.32;4.80;;;;;;;2.88;100.00;97933.66;4855165;29;20060;-78
2023/01/19 09:03:33;;;;;;;12.10;4.32;;;;;;;3.03;100.00;97935.53;4849735;29;20088;-78
2023/01/19 09:05:59;;;;;;;11.75;4.35;;;;;;;3.10;100.00;97937.25;4848158;29;20191;-80
2023/01/19 09:08:25;;;;;;;5.95;4.00;;;;;;;3.08;100.00;97933.22;4845915;29;20552;-78
2023/01/19 09:10:51;;;;;;;6.95;4.55;;;;;;;3.14;100.00;97942.88;4852119;29;20054;-79
2023/01/19 09:13:17;;;;;;;8.23;4.50;;;;;;;3.15;100.00;97949.72;4845620;29;20405;-80
2023/01/19 09:15:44;;;;;;;9.77;4.47;;;;;;;3.32;100.00;97952.16;4849397;29;20104;-81
2023/01/19 09:18:13;;;;;;;9.57;4.35;;;;;;;3.31;100.00;97940.97;4848947;29;20136;-82
2023/01/19 09:20:41;;;;;;;8.75;4.78;;;;;;;3.35;100.00;97951.81;4852027;29;20030;-79
2023/01/19 09:23:13;;;;;;;11.20;5.22;;;;;;;3.36;100.00;97958.63;4834737;29;20030;-80
2023/01/19 09:25:39;;;;;;;9.60;4.70;;;;;;;3.37;100.00;97960.22;4850943;29;20485;-81
2023/01/19 09:28:08;;;;;;;9.75;5.13;;;;;;;3.39;100.00;97966.84;4845998;29;20425;-80
2023/01/19 09:30:36;;;;;;;8.65;5.47;;;;;;;3.57;100.00;97963.94;4848577;29;20362;-81
2023/01/19 09:33:07;;;;;;;11.13;5.40;;;;;;;3.66;100.00;97976.84;4850885;29;20106;-81
2023/01/19 09:35:33;;;;;;;11.38;5.88;;;;;;;3.63;100.00;97977.19;4848376;29;20094;-78
2023/01/19 09:37:59;;;;;;;10.27;5.10;;;;;;;3.51;100.00;97982.78;4852474;29;20048;-79
2023/01/19 09:40:26;;;;;;;11.45;5.50;;;;;;;3.37;100.00;97988.78;4851486;29;20038;-80
2023/01/19 09:43:10;;;;;;;15.55;6.25;;;;;;;3.49;100.00;97996.94;4854299;29;20029;-81
2023/01/19 09:45:44;;;;;;;10.60;6.25;;;;;;;3.51;100.00;97997.56;4836461;29;20089;-81
2023/01/19 09:48:33;;;;;;;12.43;6.18;;;;;;;3.70;100.00;98011.84;4850070;29;20544;-81
2023/01/19 09:51:03;;;;;;;13.43;7.03;;;;;;;3.62;100.00;97997.13;4833619;29;20033;-79
2023/01/19 09:53:45;;;;;;;14.85;8.15;;;;;;;4.07;100.00;98006.81;4853787;29;20540;-80
2023/01/19 09:56:16;;;;;;;16.38;7.28;;;;;;;4.32;100.00;98015.13;4849902;29;20082;-80
2023/01/19 09:58:42;;;;;;;14.70;6.75;;;;;;;3.97;100.00;98015.66;4848879;29;20035;-80
2023/01/19 10:01:31;;;;;;;12.52;6.60;;;;;;;4.10;100.00;98007.25;4855766;29;20044;-80
2023/01/19 10:04:08;;;;;;;13.02;7.47;;;;;;;3.75;100.00;98016.50;4848639;29;20033;-80
2023/01/19 10:06:34;;;;;;;14.55;8.80;;;;;;;3.55;100.00;98004.03;4855232;29;20049;-81
2023/01/19 10:09:10;;;;;;;15.48;8.77;;;;;;;4.00;100.00;98009.31;4848519;29;20034;-81
2023/01/19 10:11:42;;;;;;;17.67;10.25;;;;;;;3.68;100.00;98009.44;4849796;29;20065;-80
2023/01/19 10:14:22;;;;;;;19.45;7.40;;;;;;;3.62;100.00;98023.09;4855771;29;20034;-79
2023/01/19 10:16:56;;;;;;;10.13;6.28;;;;;;;3.48;100.00;98029.84;4835216;29;20041;-80
2023/01/19 10:19:44;;;;;;;13.40;7.30;;;;;;;3.80;100.00;98014.19;4849036;29;20038;-80
2023/01/19 10:22:24;;;;;;;14.20;8.73;;;;;;;3.53;100.00;98019.75;4848121;29;20468;-79
2023/01/19 10:24:55;;;;;;;22.05;10.55;;;;;;;3.75;100.00;98022.53;4850181;29;20129;-79
2023/01/19 10:27:28;;;;;;;15.55;8.82;;;;;;;3.96;100.00;98015.84;4852939;29;20528;-80
2023/01/19 10:29:55;;;;;;;11.63;6.40;;;;;;;3.62;100.00;98024.91;4853186;29;20037;-79
2023/01/19 10:32:24;;;;;;;11.13;4.97;;;;;;;3.44;100.00;98023.41;4851846;29;20182;-80
2023/01/19 10:34:51;;;;;;;17.10;6.47;;;;;;;3.35;100.00;98032.22;4849684;29;20493;-79
2023/01/19 10:37:24;;;;;;;11.45;6.60;;;;;;;3.53;100.00;98018.97;4856538;29;20053;-79
2023/01/19 10:40:08;;;;;;;11.48;6.72;;;;;;;3.69;100.00;98043.97;4854208;29;20050;-80
2023/01/19 10:42:33;;;;;;;;;;;;;;;3.66;100.00;98044.31;4854291;29;20030;-79
2023/01/19 10:44:59;;;;;;;11.85;5.82;;;;;;;3.64;100.00;98035.91;4852409;29;20276;-80
2023/01/19 10:47:34;;;;;;;15.80;7.97;;;;;;;3.84;100.00;98034.44;4850252;29;20044;-81
2023/01/19 10:50:17;;;;;;;35.40;20.05;;;;;;;3.68;100.00;98026.78;4853472;29;20029;-82
2023/01/19 10:52:49;;;;;;;25.60;11.43;;;;;;;3.64;100.00;98025.53;4848423;29;20030;-80
2023/01/19 10:55:28;;;;;;;19.25;10.73;;;;;;;3.79;100.00;98025.56;4849703;29;20053;-81
2023/01/19 10:57:54;;;;;;;15.27;8.43;;;;;;;3.68;100.00;98026.78;4850358;29;20040;-81
2023/01/19 11:00:29;;;;;;;19.85;8.23;;;;;;;3.66;100.00;98020.97;4852242;29;20053;-81
2023/01/19 11:02:54;;;;;;;13.82;5.88;;;;;;;3.92;100.00;98017.97;4850034;29;20053;-79
2023/01/19 11:05:40;;;;;;;11.38;4.53;;;;;;;3.95;100.00;98022.03;4837336;29;20037;-81
2023/01/19 11:08:22;;;;;;;11.07;6.05;;;;;;;3.68;100.00;98032.78;4853254;29;20034;-81
2023/01/19 11:11:03;;;;;;;14.68;7.60;;;;;;;3.69;100.00;98011.03;4850709;29;20033;-79
2023/01/19 11:13:30;;;;;;;24.02;15.55;;;;;;;3.97;100.00;98017.47;4848374;29;20038;-81
2023/01/19 11:16:15;;;;;;;14.70;9.15;;;;;;;3.67;100.00;98025.16;4854763;29;20090;-78
2023/01/19 11:18:42;;;;;;;10.18;5.40;;;;;;;4.10;100.00;98022.81;4844663;29;20048;-80
2023/01/19 11:21:10;;;;;;;9.25;5.07;;;;;;;3.95;100.00;98016.84;4850601;29;20053;-81
2023/01/19 11:23:42;;;;;;;10.80;4.88;;;;;;;3.85;100.00;98020.47;4848509;29;20048;-80
2023/01/19 11:26:16;;;;;;;9.73;4.57;;;;;;;4.18;100.00;98024.53;4849763;29;20053;-80
2023/01/19 11:28:47;;;;;;;14.65;5.10;;;;;;;4.12;100.00;98012.28;4851538;29;20452;-81
2023/01/19 11:31:13;;;;;;;8.55;4.70;;;;;;;4.28;100.00;98026.88;4853103;29;20037;-81
2023/01/19 11:33:53;;;;;;;6.95;4.07;;;;;;;4.12;100.00;98028.66;4853478;29;20054;-80
2023/01/19 11:36:25;;;;;;;8.52;4.25;;;;;;;3.77;100.00;98025.75;4852816;29;20378;-80
2023/01/19 11:38:53;;;;;;;11.95;7.10;;;;;;;4.01;100.00;98016.13;4850715;29;20045;-80
2023/01/19 11:41:28;;;;;;;33.33;15.70;;;;;;;4.34;100.00;98020.97;4833539;29;20034;-79
2023/01/19 11:43:57;;;;;;;14.70;7.35;;;;;;;4.17;100.00;98020.31;4848261;29;20037;-80
2023/01/19 11:46:27;;;;;;;11.23;6.07;;;;;;;3.97;100.00;98017.47;4854958;29;20037;-81